This is the latest recevied weather packets stored in our database for station/object W2JGA. If no packets are shown the sender has not sent any weather packets the latest 1 day(s).
| Time | Temp. | Humidity | Pressure | Rain* | Wind** | Luminosity | Snow |
|---|---|---|---|---|---|---|---|
| 1778041309 | 18.89° C | 52% | 1016.1 hPa | 0 mm | 1.34 m/s, 174° | 0 W/m² | - |
| 1778041007 | 18.89° C | 52% | 1015.8 hPa | 0 mm | 1.34 m/s, 192° | 0 W/m² | - |
| 1778040703 | 18.89° C | 52% | 1015.4 hPa | 0 mm | 2.24 m/s, 195° | 0 W/m² | - |
| 1778040401 | 18.89° C | 51% | 1015.8 hPa | 0 mm | 2.68 m/s, 202° | 0 W/m² | - |
| 1778040098 | 19.44° C | 51% | 1015.8 hPa | 0 mm | 1.79 m/s, 234° | 0 W/m² | - |
| 1778039795 | 19.44° C | 50% | 1015.4 hPa | 0 mm | 2.68 m/s, 253° | 0 W/m² | - |
| 1778039491 | 19.44° C | 50% | 1015.4 hPa | 0 mm | 2.68 m/s, 249° | 0 W/m² | - |
| 1778039188 | 19.44° C | 50% | 1015.4 hPa | 0 mm | 2.24 m/s, 270° | 0 W/m² | - |
| 1778038885 | 19.44° C | 49% | 1015.4 hPa | 0 mm | 2.68 m/s, 283° | 0 W/m² | - |
| 1778038583 | 19.44° C | 46% | 1015.4 hPa | 0 mm | 2.24 m/s, 182° | 0 W/m² | - |
| 1778038279 | 20° C | 43% | 1015.4 hPa | 0 mm | 1.34 m/s, 176° | 0 W/m² | - |
| 1778037977 | 20° C | 42% | 1015 hPa | 0 mm | 0.89 m/s, 154° | 0 W/m² | - |
| 1778037674 | 20° C | 41% | 1014.7 hPa | 0 mm | 1.79 m/s, 197° | 0 W/m² | - |
| 1778037371 | 20° C | 41% | 1015 hPa | 0 mm | 0.89 m/s, 149° | 0 W/m² | - |
| 1778037068 | 20° C | 41% | 1014.7 hPa | 0 mm | 1.34 m/s, 159° | 0 W/m² | - |
| 1778036766 | 20° C | 40% | 1014.7 hPa | 0 mm | 1.79 m/s, 218° | 0 W/m² | - |
| 1778036463 | 20.56° C | 39% | 1014.7 hPa | 0 mm | 1.34 m/s, 154° | 0 W/m² | - |
| 1778036160 | 20.56° C | 39% | 1014.3 hPa | 0 mm | 0.89 m/s, 166° | 0 W/m² | - |
| 1778035856 | 20.56° C | 38% | 1014.3 hPa | 0 mm | 1.34 m/s, 262° | 0 W/m² | - |
| 1778035553 | 20.56° C | 38% | 1014.3 hPa | 0 mm | 1.79 m/s, 292° | 0 W/m² | - |
| 1778035249 | 20.56° C | 38% | 1014.3 hPa | 0 mm | 2.24 m/s, 246° | 0 W/m² | - |
| 1778034945 | 20.56° C | 38% | 1014.3 hPa | 0 mm | 0.89 m/s, 174° | 0 W/m² | - |
| 1778034643 | 20.56° C | 38% | 1014.3 hPa | 0 mm | 2.68 m/s, 295° | 0 W/m² | - |
| 1778034340 | 21.11° C | 38% | 1013.9 hPa | 0 mm | 3.13 m/s, 309° | 0 W/m² | - |
| 1778034038 | 21.11° C | 38% | 1013.9 hPa | 0 mm | 1.34 m/s, 194° | 0 W/m² | - |
* Rain latest hour (hover to see other rain measurements)
** Current wind speed in m/s (hover to see current wind gust speed)